LEVD/VLL METAR and TAF weather

Enter ICAO airport designator
Station Type Date Time Source
LEVD METAR 2019/04/19 10:00 UTC NOAA

LEVD 191000Z 09012KT 070V140 9999 SCT020 BKN030 12/07 Q1017


Station Type Date Time Source
LEVD Decoded METAR 2019/04/19 10:00 UTC NOAA

Valladolid / Villanubla, Spain (LEVD) 41-43N 004-51W 846M
Apr 19, 2019 - 06:00 AM EDT / 2019.04.19 1000 UTC
Wind: from the E (090 degrees) at 14 MPH (12 KT) (direction variable):0
Visibility: greater than 7 mile(s):0
Sky conditions: mostly cloudy
Temperature: 53 F (12 C)
Dew Point: 44 F (7 C)
Relative Humidity: 71%
Pressure (altimeter): 30.03 in. Hg (1017 hPa)
ob: LEVD 191000Z 09012KT 070V140 9999 SCT020 BKN030 12/07 Q1017
cycle: 10

Station Type Date Time Source
LEVD TAF 2019/04/19 06:27 UTC NOAA

TAF LEVD 190500Z 1906/2006 08010KT 9999 FEW010 BKN030 TX13/1915Z TN07/1906Z PROB30
TEMPO 1906/1908 2000 BR BKN011
TEMPO 1912/1920 17015G25KT PROB30
TEMPO 1912/1918 RA BKN008

Example: see airport list